Time;durP1;ratioP1;P1;durP2;ratioP2;P2;SDS_P1;SDS_P2;PMS_P1;PMS_P2;Temp;Humidity;BMP_temperature;BMP_pressure;BME280_temperature;BME280_humidity;BME280_pressure;Samples;Min_cycle;Max_cycle;Signal;HPM_P1;HPM_P2
2023/10/12 00:02:04;;;;;;;3.28;1.35;;;19.00;99.90;;;;;;4184798;28;20671;-88
2023/10/12 00:04:06;;;;;;;3.88;1.60;;;18.90;99.90;;;;;;4172716;28;20184;-89
2023/10/12 00:06:07;;;;;;;5.43;1.80;;;18.90;99.90;;;;;;4189346;28;20186;-88
2023/10/12 00:08:10;;;;;;;2.00;1.50;;;18.80;99.90;;;;;;4153628;28;20184;-88
2023/10/12 00:12:14;;;;;;;3.17;1.48;;;18.90;99.90;;;;;;4204243;28;20241;-89
2023/10/12 00:14:32;;;;;;;4.13;1.85;;;18.90;99.90;;;;;;4207875;28;20174;-88
2023/10/12 00:16:35;;;;;;;5.68;1.90;;;18.90;99.90;;;;;;4188598;28;20210;-96
2023/10/12 00:18:38;;;;;;;4.38;1.73;;;19.10;99.90;;;;;;4155397;28;20264;-95
2023/10/12 00:20:39;;;;;;;4.05;2.08;;;19.00;99.90;;;;;;4187908;28;20168;-88
2023/10/12 00:22:40;;;;;;;3.33;1.77;;;19.00;99.90;;;;;;4156569;28;20260;-90
2023/10/12 00:24:41;;;;;;;3.83;1.55;;;18.90;99.90;;;;;;4202530;28;20206;-90
2023/10/12 00:26:43;;;;;;;4.55;1.63;;;18.90;99.90;;;;;;4168982;28;20219;-88
2023/10/12 00:28:44;;;;;;;4.10;2.10;;;18.90;99.90;;;;;;4184976;28;20172;-96
2023/10/12 00:30:54;;;;;;;5.82;1.80;;;18.80;99.90;;;;;;4172602;28;20532;-88
2023/10/12 00:32:55;;;;;;;4.32;2.15;;;18.80;99.90;;;;;;4150510;28;20224;-88
2023/10/12 00:34:58;;;;;;;3.67;1.73;;;18.90;99.90;;;;;;4205256;28;20175;-88
2023/10/12 00:37:02;;;;;;;8.13;1.92;;;19.00;99.90;;;;;;4169541;28;20184;-91
2023/10/12 00:39:10;;;;;;;4.50;1.50;;;19.00;99.90;;;;;;4188422;28;20195;-88
2023/10/12 00:41:14;;;;;;;5.03;2.35;;;19.00;99.90;;;;;;4170225;28;20191;-88
2023/10/12 00:43:15;;;;;;;6.57;2.22;;;19.00;99.90;;;;;;4187822;28;20261;-88
2023/10/12 00:45:20;;;;;;;7.22;1.63;;;19.10;99.90;;;;;;4171991;28;20248;-88
2023/10/12 00:49:48;;;;;;;4.07;1.33;;;19.00;99.90;;;;;;4173247;28;20190;-94
2023/10/12 00:51:53;;;;;;;7.32;2.20;;;19.00;99.90;;;;;;4187252;28;20641;-88
2023/10/12 00:53:57;;;;;;;3.30;1.58;;;18.90;99.90;;;;;;4171306;28;20250;-88
2023/10/12 00:56:02;;;;;;;4.45;1.88;;;19.00;99.90;;;;;;4185974;28;20183;-92
2023/10/12 00:58:08;;;;;;;4.65;1.70;;;19.10;99.90;;;;;;4153789;28;20712;-88
2023/10/12 01:00:15;;;;;;;3.92;1.70;;;19.20;99.90;;;;;;4155963;28;20184;-95
2023/10/12 01:02:20;;;;;;;6.18;2.15;;;19.00;99.90;;;;;;4153210;28;20220;-89
2023/10/12 01:04:22;;;;;;;4.70;1.50;;;18.90;99.90;;;;;;4156072;28;20169;-89
2023/10/12 01:08:30;;;;;;;6.78;1.90;;;18.60;99.90;;;;;;4170613;28;20176;-90
2023/10/12 01:10:33;;;;;;;2.90;1.60;;;18.50;99.90;;;;;;4156218;28;20177;-92
2023/10/12 01:12:34;;;;;;;8.00;2.10;;;18.80;99.90;;;;;;4154593;28;20173;-95
2023/10/12 01:14:35;;;;;;;4.30;1.88;;;18.40;99.90;;;;;;4186854;28;20197;-89
2023/10/12 01:16:43;;;;;;;8.23;2.08;;;18.40;99.90;;;;;;4171093;28;20227;-90
2023/10/12 01:18:45;;;;;;;7.30;2.22;;;18.50;99.90;;;;;;4187088;28;20167;-92
2023/10/12 01:20:49;;;;;;;3.22;1.60;;;18.40;99.90;;;;;;4169199;28;20183;-90
2023/10/12 01:22:51;;;;;;;4.38;2.30;;;18.30;99.90;;;;;;4169573;28;20187;-95
2023/10/12 01:26:55;;;;;;;7.88;2.28;;;18.50;99.90;;;;;;4170244;28;20210;-92
2023/10/12 01:28:56;;;;;;;5.13;1.90;;;18.40;99.90;;;;;;4186511;28;20199;-90
2023/10/12 01:30:57;;;;;;;3.85;1.90;;;18.40;99.90;;;;;;4167716;28;20176;-95
2023/10/12 01:32:58;;;;;;;4.03;2.35;;;18.30;99.90;;;;;;4153120;28;20176;-95
2023/10/12 01:35:03;;;;;;;3.75;2.38;;;18.30;99.90;;;;;;4169530;28;20192;-94
2023/10/12 01:37:24;;;;;;;4.05;2.10;;;18.10;99.90;;;;;;4170114;28;20275;-94
2023/10/12 01:39:28;;;;;;;3.00;1.63;;;18.10;99.90;;;;;;4151164;28;20246;-89
2023/10/12 01:41:32;;;;;;;5.18;2.05;;;18.10;99.90;;;;;;4167406;28;20751;-95
2023/10/12 01:43:35;;;;;;;3.35;1.80;;;18.10;99.90;;;;;;4153910;28;20192;-93
2023/10/12 01:45:41;;;;;;;3.15;1.77;;;18.20;99.90;;;;;;4169383;28;20679;-90
2023/10/12 01:47:42;;;;;;;3.40;1.60;;;18.10;99.90;;;;;;4170757;28;20176;-89
2023/10/12 01:49:46;;;;;;;4.70;1.88;;;18.00;99.90;;;;;;4172234;28;20172;-90
2023/10/12 01:51:47;;;;;;;11.90;3.00;;;18.00;99.90;;;;;;4154513;28;20220;-90
2023/10/12 01:53:49;;;;;;;5.40;1.88;;;18.10;99.90;;;;;;4170772;28;20270;-90
2023/10/12 01:55:52;;;;;;;6.53;2.35;;;18.10;99.90;;;;;;4185116;28;20192;-90
2023/10/12 01:57:53;;;;;;;7.03;2.20;;;18.10;99.90;;;;;;4184126;28;20179;-90
2023/10/12 01:59:55;;;;;;;3.53;2.22;;;18.10;99.90;;;;;;4185895;28;20238;-91
2023/10/12 02:02:13;;;;;;;5.25;1.90;;;18.10;99.90;;;;;;4185506;28;20666;-90
2023/10/12 02:04:14;;;;;;;10.77;3.95;;;18.10;99.90;;;;;;4202191;28;20213;-94
2023/10/12 02:06:16;;;;;;;3.20;2.05;;;18.00;99.90;;;;;;4169525;28;20192;-90
2023/10/12 02:08:20;;;;;;;7.25;2.22;;;17.90;99.90;;;;;;4183900;28;20182;-89
2023/10/12 02:10:24;;;;;;;5.15;2.00;;;17.90;99.90;;;;;;4185845;28;20198;-90
2023/10/12 02:12:26;;;;;;;8.73;2.20;;;17.80;99.90;;;;;;4152698;28;20177;-91
2023/10/12 02:14:39;;;;;;;11.13;2.50;;;17.80;99.90;;;;;;4171574;28;20556;-90
2023/10/12 02:16:52;;;;;;;3.05;2.03;;;17.90;99.90;;;;;;4167105;28;20196;-96
2023/10/12 02:18:56;;;;;;;6.25;2.45;;;17.70;99.90;;;;;;4184625;28;20167;-95
2023/10/12 02:23:12;;;;;;;7.80;2.15;;;17.70;99.90;;;;;;4170978;28;20243;-93
2023/10/12 02:27:17;;;;;;;5.85;2.88;;;17.70;99.90;;;;;;4171683;28;20283;-90
2023/10/12 02:29:18;;;;;;;5.38;2.25;;;17.70;99.90;;;;;;4155142;28;20173;-89
2023/10/12 02:31:28;;;;;;;4.65;2.20;;;17.70;99.90;;;;;;4153861;28;20164;-91
2023/10/12 02:33:35;;;;;;;5.30;2.90;;;17.60;99.90;;;;;;4185607;28;20178;-91
2023/10/12 02:35:44;;;;;;;6.20;2.10;;;17.60;99.90;;;;;;4172976;28;20180;-89
2023/10/12 02:37:46;;;;;;;5.15;2.10;;;17.60;99.90;;;;;;4186459;28;20179;-90
2023/10/12 02:39:48;;;;;;;6.38;2.10;;;17.60;99.90;;;;;;4188455;28;20254;-91
2023/10/12 02:42:10;;;;;;;3.70;1.73;;;17.60;99.90;;;;;;4185699;28;20286;-90
2023/10/12 02:44:14;;;;;;;6.30;2.20;;;17.60;99.90;;;;;;4186138;28;20167;-90
2023/10/12 02:46:22;;;;;;;5.55;2.55;;;17.70;99.90;;;;;;4168528;28;20204;-91
2023/10/12 02:48:23;;;;;;;5.15;2.47;;;17.70;99.90;;;;;;4185598;28;20195;-90
2023/10/12 02:50:28;;;;;;;4.70;1.92;;;17.70;99.90;;;;;;4171989;28;20203;-95
2023/10/12 02:52:31;;;;;;;15.02;2.60;;;17.80;99.90;;;;;;4168115;28;20183;-96
2023/10/12 02:54:38;;;;;;;4.78;1.95;;;17.70;99.90;;;;;;4169277;28;20176;-89
2023/10/12 02:56:42;;;;;;;3.67;2.45;;;17.60;99.90;;;;;;4183541;28;20199;-89
2023/10/12 02:58:45;;;;;;;2.95;1.98;;;17.60;99.90;;;;;;4167637;28;20199;-95
2023/10/12 03:00:47;;;;;;;10.80;2.30;;;17.50;99.90;;;;;;4183297;28;20179;-89
2023/10/12 03:02:52;;;;;;;3.83;1.80;;;17.30;99.90;;;;;;4153195;28;20224;-89
2023/10/12 03:04:55;;;;;;;8.85;2.10;;;17.30;99.90;;;;;;4182880;28;20181;-90
2023/10/12 03:07:08;;;;;;;4.43;1.98;;;17.30;99.90;;;;;;4150556;28;20201;-92
2023/10/12 03:11:12;;;;;;;6.15;2.53;;;17.30;99.90;;;;;;4167033;28;20210;-90
2023/10/12 03:13:26;;;;;;;4.93;1.85;;;17.30;99.90;;;;;;4182061;28;20206;-90
2023/10/12 03:15:42;;;;;;;4.10;2.17;;;17.40;99.90;;;;;;4166134;28;20222;-90
2023/10/12 03:17:45;;;;;;;4.95;2.20;;;17.40;99.90;;;;;;4166078;28;20172;-90
2023/10/12 03:22:25;;;;;;;5.10;2.20;;;17.30;99.90;;;;;;4148092;28;20754;-92
2023/10/12 03:24:39;;;;;;;3.15;1.90;;;17.40;99.90;;;;;;4151519;28;20296;-91
2023/10/12 03:26:55;;;;;;;4.88;1.88;;;17.40;99.90;;;;;;4149721;28;20226;-95
2023/10/12 03:31:23;;;;;;;9.35;2.55;;;17.20;99.90;;;;;;4167465;28;20203;-90
2023/10/12 03:33:34;;;;;;;5.57;2.30;;;17.20;99.90;;;;;;4149896;28;20270;-94
2023/10/12 03:35:44;;;;;;;6.07;2.70;;;17.10;99.90;;;;;;4167812;28;20180;-92
2023/10/12 03:37:45;;;;;;;4.63;2.13;;;17.10;99.90;;;;;;4166361;28;20175;-93
2023/10/12 03:44:17;;;;;;;6.93;2.30;;;17.10;99.90;;;;;;4166044;28;20199;-90
2023/10/12 03:46:26;;;;;;;7.78;2.60;;;17.10;99.90;;;;;;4182463;28;20187;-90
2023/10/12 03:51:25;;;;;;;6.68;2.42;;;17.10;99.90;;;;;;4166132;28;20176;-91
2023/10/12 03:53:16;;;;;;;6.47;2.83;;;17.10;99.90;;;;;;4161696;28;20180;-90
2023/10/12 03:55:25;;;;;;;7.68;2.47;;;17.20;99.90;;;;;;4166405;28;20203;-91
2023/10/12 03:58:15;;;;;;;7.35;2.65;;;17.20;99.90;;;;;;4165153;28;20174;-90
2023/10/12 04:00:24;;;;;;;8.93;3.47;;;17.20;99.90;;;;;;4158568;28;20180;-90
2023/10/12 04:02:15;;;;;;;7.68;2.97;;;17.10;99.90;;;;;;4164739;28;20281;-91
2023/10/12 04:06:23;;;;;;;6.65;2.50;;;16.90;99.90;;;;;;4181447;28;20191;-88
2023/10/12 04:13:02;;;;;;;9.63;2.78;;;16.90;99.90;;;;;;4165061;28;20541;-90
2023/10/12 04:15:26;;;;;;;6.05;2.72;;;16.90;99.90;;;;;;4181513;28;20167;-95
2023/10/12 04:19:32;;;;;;;7.65;3.58;;;17.00;99.90;;;;;;4165292;28;20165;-94
2023/10/12 04:21:50;;;;;;;13.10;3.28;;;17.00;99.90;;;;;;4182113;28;20211;-89
2023/10/12 04:28:23;;;;;;;6.15;3.03;;;17.00;99.90;;;;;;4167882;28;20254;-90
2023/10/12 04:30:42;;;;;;;10.60;3.13;;;17.10;99.90;;;;;;4168377;28;20184;-95
2023/10/12 04:37:38;;;;;;;7.82;2.83;;;17.00;99.90;;;;;;4167914;28;20191;-96
2023/10/12 04:39:48;;;;;;;4.20;2.65;;;17.00;99.90;;;;;;4168342;28;20176;-96
2023/10/12 04:42:01;;;;;;;6.07;2.67;;;17.00;99.90;;;;;;4184119;28;20751;-88
2023/10/12 04:48:31;;;;;;;6.18;2.60;;;16.90;99.90;;;;;;4168239;28;20730;-89
2023/10/12 04:50:44;;;;;;;5.90;2.45;;;17.00;99.90;;;;;;4168592;28;20667;-93
2023/10/12 04:53:07;;;;;;;5.72;2.63;;;17.00;99.90;;;;;;4167899;28;20207;-91
2023/10/12 04:55:07;;;;;;;6.40;2.33;;;17.00;99.90;;;;;;4167669;28;20172;-90
2023/10/12 04:59:16;;;;;;;5.32;2.15;;;17.10;99.90;;;;;;4167649;28;20168;-94
2023/10/12 05:01:19;;;;;;;3.90;1.92;;;17.10;99.90;;;;;;4183884;28;20207;-89
2023/10/12 05:03:25;;;;;;;4.13;2.45;;;17.00;99.90;;;;;;4150622;28;20176;-89
2023/10/12 05:07:40;;;;;;;6.88;2.70;;;16.60;99.90;;;;;;4200040;28;20163;-94
2023/10/12 05:09:48;;;;;;;8.10;2.83;;;16.60;99.90;;;;;;4166699;28;20174;-89
2023/10/12 05:11:49;;;;;;;9.98;3.05;;;16.60;99.90;;;;;;4183703;28;20273;-89
2023/10/12 05:13:50;;;;;;;6.95;2.67;;;16.60;99.90;;;;;;4166888;28;20172;-94
2023/10/12 05:15:55;;;;;;;6.10;2.47;;;16.70;99.90;;;;;;4183267;28;20207;-89
2023/10/12 05:17:56;;;;;;;5.75;2.70;;;16.70;99.90;;;;;;4166729;28;20176;-89
2023/10/12 05:19:56;;;;;;;3.53;2.20;;;16.70;99.90;;;;;;4183098;28;20175;-89
2023/10/12 05:21:58;;;;;;;7.38;2.65;;;16.70;99.90;;;;;;4183035;28;20211;-89
2023/10/12 05:23:59;;;;;;;4.57;2.42;;;16.80;99.90;;;;;;4167308;28;20164;-89
2023/10/12 05:28:14;;;;;;;5.30;2.60;;;16.90;99.90;;;;;;4166656;28;20172;-88
2023/10/12 05:30:19;;;;;;;8.35;3.33;;;16.90;99.90;;;;;;4166626;28;20611;-90
2023/10/12 05:32:36;;;;;;;8.18;2.78;;;17.00;99.90;;;;;;4166597;28;20602;-89
2023/10/12 05:36:42;;;;;;;6.32;2.33;;;16.80;99.90;;;;;;4166517;28;20279;-95
2023/10/12 05:38:49;;;;;;;6.85;2.53;;;16.80;99.90;;;;;;4149995;28;20181;-95
2023/10/12 05:40:53;;;;;;;9.55;2.85;;;16.80;99.90;;;;;;4150402;28;20177;-92
2023/10/12 05:42:54;;;;;;;4.97;2.05;;;16.70;99.90;;;;;;4199727;28;20193;-89
2023/10/12 05:45:21;;;;;;;5.03;2.40;;;16.60;99.90;;;;;;4150426;28;20532;-89
2023/10/12 05:47:18;;;;;;;7.70;2.60;;;16.60;99.90;;;;;;4167050;28;20204;-90
2023/10/12 05:49:23;;;;;;;5.97;2.50;;;16.40;99.90;;;;;;4150227;28;20181;-89
2023/10/12 05:51:24;;;;;;;4.18;2.42;;;16.30;99.90;;;;;;4149892;28;20176;-88
2023/10/12 05:53:26;;;;;;;6.72;2.00;;;16.20;99.90;;;;;;4182487;28;20174;-90
2023/10/12 05:55:27;;;;;;;7.82;2.25;;;16.30;99.90;;;;;;4166439;28;20184;-89
2023/10/12 05:57:29;;;;;;;4.18;2.17;;;16.20;99.90;;;;;;4198904;28;20163;-89
2023/10/12 05:59:30;;;;;;;5.75;2.10;;;16.30;99.90;;;;;;4166223;28;20188;-89
2023/10/12 06:01:35;;;;;;;5.50;2.15;;;16.40;99.90;;;;;;4182812;28;20256;-89
2023/10/12 06:03:40;;;;;;;4.38;2.10;;;16.40;99.90;;;;;;4166165;28;20226;-88
2023/10/12 06:05:44;;;;;;;8.05;2.15;;;16.30;99.90;;;;;;4149868;28;20169;-89
2023/10/12 06:07:45;;;;;;;6.47;1.88;;;16.20;99.90;;;;;;4149877;28;20184;-94
2023/10/12 06:09:46;;;;;;;8.32;2.15;;;16.20;99.90;;;;;;4149417;28;20161;-88
2023/10/12 06:11:48;;;;;;;4.57;1.98;;;16.30;99.90;;;;;;4165944;28;20187;-94
2023/10/12 06:13:52;;;;;;;6.32;2.25;;;16.40;99.90;;;;;;4149941;28;20222;-92
2023/10/12 06:15:53;;;;;;;2.95;1.75;;;16.50;99.90;;;;;;4182289;28;20202;-88
2023/10/12 06:17:55;;;;;;;13.07;2.33;;;16.40;99.90;;;;;;4165919;28;20164;-88
2023/10/12 06:20:46;;;;;;;3.53;1.92;;;16.30;99.90;;;;;;4149782;28;20251;-90
2023/10/12 06:22:23;;;;;;;7.43;2.30;;;16.30;99.90;;;;;;4176734;28;20226;-89
2023/10/12 06:24:33;;;;;;;2.78;1.75;;;16.30;99.90;;;;;;4166070;28;20180;-88
2023/10/12 06:26:34;;;;;;;5.00;2.47;;;16.30;99.90;;;;;;4165898;28;20199;-95
2023/10/12 06:28:38;;;;;;;5.07;1.50;;;16.40;99.90;;;;;;4150087;28;20180;-88
2023/10/12 06:30:40;;;;;;;4.43;2.25;;;16.50;99.90;;;;;;4182293;28;20171;-88
2023/10/12 06:32:42;;;;;;;3.83;2.13;;;16.50;99.90;;;;;;4165888;28;20517;-88
2023/10/12 06:34:43;;;;;;;5.97;2.53;;;16.50;99.90;;;;;;4165394;28;20210;-89
2023/10/12 06:36:44;;;;;;;7.47;1.35;;;16.40;99.90;;;;;;4149135;28;20593;-88
2023/10/12 06:39:02;;;;;;;6.15;1.75;;;16.30;99.90;;;;;;4182674;28;20182;-89
2023/10/12 06:45:29;;;;;;;2.47;1.50;;;16.40;99.90;;;;;;4166392;28;20176;-88
2023/10/12 06:47:41;;;;;;;6.00;1.95;;;16.40;99.90;;;;;;4167591;28;20176;-89
2023/10/12 06:49:44;;;;;;;4.20;1.98;;;16.40;99.90;;;;;;4181948;28;20655;-89
2023/10/12 06:52:00;;;;;;;3.05;2.00;;;16.40;99.90;;;;;;4149118;28;20223;-88
2023/10/12 06:54:17;;;;;;;4.00;1.73;;;16.60;99.90;;;;;;4182747;28;20180;-89
2023/10/12 06:58:36;;;;;;;6.65;2.13;;;16.50;99.90;;;;;;4165606;28;20183;-87
2023/10/12 07:00:59;;;;;;;2.45;1.80;;;16.50;99.90;;;;;;4181935;28;20175;-88
2023/10/12 07:02:57;;;;;;;4.97;1.65;;;16.50;99.90;;;;;;4165092;28;20330;-91
2023/10/12 07:04:59;;;;;;;7.20;1.80;;;16.70;99.90;;;;;;4165374;28;20176;-93
2023/10/12 07:07:00;;;;;;;6.15;2.50;;;16.70;99.90;;;;;;4148858;28;20193;-96
2023/10/12 07:09:01;;;;;;;5.60;1.85;;;16.80;99.90;;;;;;4181905;28;20603;-95
2023/10/12 07:11:04;;;;;;;6.97;2.15;;;16.70;99.90;;;;;;4148760;28;20181;-93
2023/10/12 07:13:09;;;;;;;3.63;1.83;;;16.80;99.90;;;;;;4165011;28;20175;-88
2023/10/12 07:15:23;;;;;;;4.65;1.95;;;16.80;99.90;;;;;;4181761;28;20242;-89
2023/10/12 07:17:32;;;;;;;4.10;1.63;;;16.70;99.90;;;;;;4148601;28;20241;-93
2023/10/12 07:19:34;;;;;;;3.90;2.28;;;16.60;99.90;;;;;;4198307;28;20187;-90
2023/10/12 07:21:36;;;;;;;7.05;2.67;;;16.50;99.90;;;;;;4148816;28;20545;-95
2023/10/12 07:23:42;;;;;;;5.10;1.80;;;16.40;99.90;;;;;;4181296;28;20559;-88
2023/10/12 07:25:44;;;;;;;7.80;2.35;;;16.40;99.90;;;;;;4148730;28;20196;-88
2023/10/12 07:27:56;;;;;;;3.83;1.80;;;16.30;99.90;;;;;;4148636;28;20177;-94
2023/10/12 07:34:23;;;;;;;7.15;1.83;;;16.20;99.90;;;;;;4164937;28;20315;-94
2023/10/12 07:38:41;;;;;;;5.85;1.98;;;16.20;99.90;;;;;;4165121;28;20168;-89
2023/10/12 07:43:00;;;;;;;2.58;1.65;;;16.20;99.90;;;;;;4165129;28;20313;-88
2023/10/12 07:45:05;;;;;;;3.83;1.80;;;16.30;99.90;;;;;;4181671;28;20694;-89
2023/10/12 07:47:19;;;;;;;7.40;2.00;;;16.40;99.90;;;;;;4165115;28;20199;-88
2023/10/12 07:49:37;;;;;;;4.25;2.30;;;16.50;99.90;;;;;;4148655;28;20176;-88
2023/10/12 07:51:59;;;;;;;6.63;2.35;;;16.60;99.90;;;;;;4165064;28;20164;-89
2023/10/12 07:54:09;;;;;;;2.97;1.80;;;16.60;99.90;;;;;;4164827;28;20183;-94
2023/10/12 07:56:16;;;;;;;3.92;1.48;;;16.80;99.90;;;;;;4181033;28;20199;-89
2023/10/12 07:58:18;;;;;;;5.78;2.08;;;16.80;99.90;;;;;;4151537;28;20174;-88
2023/10/12 08:00:29;;;;;;;5.82;1.50;;;17.00;99.90;;;;;;4169913;28;20255;-89
2023/10/12 08:05:16;;;;;;;6.43;1.50;;;17.30;99.90;;;;;;4146742;28;20245;-95
2023/10/12 08:07:26;;;;;;;4.63;2.05;;;17.20;99.90;;;;;;4184908;28;20547;-88
2023/10/12 08:11:34;;;;;;;5.68;1.95;;;17.30;99.90;;;;;;4169916;28;20233;-88
2023/10/12 08:13:39;;;;;;;8.93;1.98;;;17.40;99.90;;;;;;4186164;28;20180;-89
2023/10/12 08:18:09;;;;;;;11.38;1.95;;;17.80;99.90;;;;;;4200126;28;20179;-88
2023/10/12 08:22:46;;;;;;;7.88;2.45;;;18.30;99.90;;;;;;4172287;28;20223;-94
2023/10/12 08:24:49;;;;;;;5.72;2.05;;;18.40;99.90;;;;;;4153619;28;20192;-89
2023/10/12 08:26:57;;;;;;;4.97;2.13;;;18.40;99.90;;;;;;4167575;28;20234;-89
2023/10/12 08:28:58;;;;;;;4.63;1.80;;;18.40;99.90;;;;;;4184216;28;20555;-95
2023/10/12 08:31:05;;;;;;;4.30;1.85;;;18.40;99.90;;;;;;4151425;28;20177;-88
2023/10/12 08:33:14;;;;;;;4.72;1.85;;;18.30;99.90;;;;;;4184100;28;20183;-89
2023/10/12 08:35:32;;;;;;;9.70;1.75;;;18.40;99.90;;;;;;4151506;28;20208;-88
2023/10/12 08:37:37;;;;;;;3.05;1.55;;;18.40;99.90;;;;;;4184468;28;20583;-94
2023/10/12 08:39:48;;;;;;;5.97;2.45;;;18.60;99.90;;;;;;4168401;28;20263;-88
2023/10/12 08:42:29;;;;;;;3.25;1.73;;;18.40;99.90;;;;;;4184859;28;20305;-89
2023/10/12 08:44:20;;;;;;;5.70;1.83;;;18.50;99.90;;;;;;4167597;28;20173;-88
2023/10/12 08:48:53;;;;;;;4.57;1.70;;;18.40;99.90;;;;;;4167413;28;20176;-89
2023/10/12 08:51:06;;;;;;;4.57;1.85;;;18.30;99.90;;;;;;4151125;28;20230;-89
2023/10/12 08:53:07;;;;;;;4.72;1.63;;;18.30;99.90;;;;;;4151463;28;20235;-89
2023/10/12 08:55:12;;;;;;;5.45;1.70;;;18.10;99.90;;;;;;4184239;28;20670;-89
2023/10/12 08:57:19;;;;;;;3.72;1.48;;;17.90;99.90;;;;;;4167578;28;20265;-87
2023/10/12 08:59:20;;;;;;;5.05;1.75;;;17.90;99.90;;;;;;4151191;28;20169;-89
2023/10/12 09:01:26;;;;;;;6.22;1.60;;;17.90;99.90;;;;;;4151967;28;20605;-94
2023/10/12 09:03:29;;;;;;;3.22;1.65;;;17.90;99.90;;;;;;4154779;28;20591;-88
2023/10/12 09:05:31;;;;;;;4.57;1.92;;;17.90;99.90;;;;;;4200719;28;20530;-89
2023/10/12 09:07:40;;;;;;;5.20;1.73;;;18.00;99.90;;;;;;4151869;28;20180;-89
2023/10/12 09:09:55;;;;;;;4.22;2.10;;;18.10;99.90;;;;;;4193875;28;20163;-89
2023/10/12 09:11:59;;;;;;;5.80;1.98;;;18.10;99.90;;;;;;4175904;28;20206;-89
2023/10/12 09:14:11;;;;;;;4.65;1.98;;;18.30;99.90;;;;;;4184065;28;20210;-94
2023/10/12 09:16:14;;;;;;;3.88;1.65;;;18.30;99.90;;;;;;4151133;28;20193;-94
2023/10/12 09:18:19;;;;;;;4.07;1.73;;;18.30;99.90;;;;;;4170072;28;20718;-89
2023/10/12 09:20:28;;;;;;;6.40;1.92;;;18.50;99.90;;;;;;4151678;28;20708;-89
2023/10/12 09:22:29;;;;;;;10.00;2.08;;;18.60;99.90;;;;;;4183471;28;20203;-89
2023/10/12 09:24:35;;;;;;;4.90;2.20;;;18.50;99.90;;;;;;4167179;28;20188;-88
2023/10/12 09:26:48;;;;;;;4.68;2.10;;;18.50;99.90;;;;;;4150663;28;20201;-88
2023/10/12 09:30:50;;;;;;;3.20;1.67;;;18.40;99.90;;;;;;4200250;28;20179;-89
2023/10/12 09:33:07;;;;;;;3.45;1.85;;;18.40;99.90;;;;;;4183336;28;20168;-88
2023/10/12 09:35:13;;;;;;;5.70;2.28;;;18.40;99.90;;;;;;4200988;28;20206;-89
2023/10/12 09:37:18;;;;;;;8.02;2.35;;;18.40;99.90;;;;;;4183470;28;20827;-89
2023/10/12 09:39:27;;;;;;;6.25;1.75;;;18.40;99.90;;;;;;4183411;28;20184;-90
2023/10/12 09:41:32;;;;;;;8.55;2.05;;;18.50;99.90;;;;;;4151038;28;20192;-89
2023/10/12 09:43:38;;;;;;;4.10;2.08;;;18.30;99.90;;;;;;4166593;28;20212;-88
2023/10/12 09:45:45;;;;;;;3.78;1.65;;;18.30;99.90;;;;;;4150770;28;20297;-90
2023/10/12 09:47:55;;;;;;;9.30;2.33;;;18.40;99.90;;;;;;4183449;28;20175;-90
2023/10/12 09:49:59;;;;;;;3.70;1.60;;;18.50;99.90;;;;;;4150505;28;20173;-91
2023/10/12 09:52:07;;;;;;;6.57;2.03;;;18.40;99.90;;;;;;4200898;28;20171;-96
2023/10/12 09:54:16;;;;;;;8.50;2.42;;;18.30;99.90;;;;;;4150927;28;20175;-96
2023/10/12 09:56:24;;;;;;;3.78;1.90;;;18.20;99.90;;;;;;4149967;28;20788;-88
2023/10/12 09:58:25;;;;;;;8.57;2.00;;;18.30;99.90;;;;;;4150392;28;20175;-89
2023/10/12 10:00:55;;;;;;;4.55;2.10;;;18.40;99.90;;;;;;4183607;28;20179;-89
2023/10/12 10:02:55;;;;;;;5.50;1.95;;;18.60;99.90;;;;;;4199575;28;20203;-89
2023/10/12 10:07:26;;;;;;;8.35;2.28;;;18.40;99.90;;;;;;4166496;28;20196;-89
2023/10/12 10:11:32;;;;;;;9.18;1.85;;;18.30;99.90;;;;;;4167606;28;20267;-90
2023/10/12 10:13:40;;;;;;;4.93;2.78;;;18.50;99.90;;;;;;4151066;28;20193;-88
2023/10/12 10:15:56;;;;;;;4.65;1.88;;;18.60;99.90;;;;;;4151352;28;20259;-88
2023/10/12 10:17:57;;;;;;;4.97;1.65;;;18.80;99.90;;;;;;4150346;28;20199;-89
2023/10/12 10:22:31;;;;;;;5.43;2.38;;;18.60;99.90;;;;;;4136181;28;20215;-90
2023/10/12 10:24:45;;;;;;;8.10;2.47;;;18.80;99.90;;;;;;4184498;28;20274;-94
2023/10/12 10:26:56;;;;;;;3.45;1.70;;;19.10;99.90;;;;;;4183527;28;20199;-88
2023/10/12 10:29:04;;;;;;;6.32;1.95;;;19.30;99.90;;;;;;4169463;28;20188;-94
2023/10/12 10:31:11;;;;;;;7.07;2.85;;;19.30;99.90;;;;;;4155432;28;20167;-95
2023/10/12 10:33:14;;;;;;;2.88;1.55;;;19.20;99.90;;;;;;4184482;28;20199;-88
2023/10/12 10:35:18;;;;;;;4.38;2.28;;;19.20;99.90;;;;;;4183899;28;20172;-95
2023/10/12 10:37:57;;;;;;;3.55;1.90;;;19.20;99.90;;;;;;4149885;28;20192;-88
2023/10/12 10:39:58;;;;;;;3.67;1.83;;;19.20;99.90;;;;;;4167473;28;20624;-88
2023/10/12 10:42:04;;;;;;;8.48;1.73;;;19.00;99.90;;;;;;4183836;28;20237;-87
2023/10/12 10:44:26;;;;;;;4.63;1.80;;;19.10;99.90;;;;;;4186476;28;20178;-94
2023/10/12 10:46:27;;;;;;;4.43;2.25;;;19.30;99.90;;;;;;4150548;28;20196;-89
2023/10/12 10:48:28;;;;;;;2.95;1.88;;;19.30;99.90;;;;;;4183748;28;20179;-88
2023/10/12 10:50:33;;;;;;;4.60;1.80;;;19.30;99.90;;;;;;4167992;28;20202;-88
2023/10/12 10:52:38;;;;;;;3.47;1.50;;;19.50;99.90;;;;;;4166578;28;20168;-88
2023/10/12 10:54:41;;;;;;;3.40;1.55;;;19.40;99.90;;;;;;4168037;28;20555;-89
2023/10/12 10:56:47;;;;;;;3.13;1.63;;;19.30;99.90;;;;;;4183113;28;20674;-89
2023/10/12 10:58:48;;;;;;;7.20;2.13;;;19.30;99.90;;;;;;4166790;28;20180;-88
2023/10/12 11:00:56;;;;;;;8.18;2.30;;;19.30;99.90;;;;;;4168964;28;20149;-88
2023/10/12 11:02:57;;;;;;;5.82;1.70;;;19.30;99.90;;;;;;4199571;28;20203;-88
2023/10/12 11:05:00;;;;;;;5.35;2.15;;;19.50;99.90;;;;;;4168409;28;20192;-89
2023/10/12 11:07:03;;;;;;;3.60;1.80;;;19.50;99.90;;;;;;4166750;28;20180;-88
2023/10/12 11:09:07;;;;;;;3.88;2.03;;;19.40;99.90;;;;;;4185132;28;20171;-94
2023/10/12 11:13:17;;;;;;;2.35;1.60;;;19.40;99.90;;;;;;4200275;28;20224;-93
2023/10/12 11:15:20;;;;;;;4.63;1.77;;;19.20;99.90;;;;;;4150545;28;20176;-95
2023/10/12 11:17:21;;;;;;;3.90;1.60;;;19.20;99.90;;;;;;4199585;28;20254;-94
2023/10/12 11:19:23;;;;;;;4.50;1.83;;;19.10;99.90;;;;;;4184601;28;20190;-95
2023/10/12 11:21:28;;;;;;;3.03;1.67;;;19.10;99.90;;;;;;4184736;28;20178;-95
2023/10/12 11:23:29;;;;;;;4.55;1.85;;;19.10;99.90;;;;;;4152008;28;20299;-89
2023/10/12 11:25:33;;;;;;;5.47;1.98;;;19.20;99.90;;;;;;4182423;28;20607;-87
2023/10/12 11:27:39;;;;;;;4.82;2.00;;;19.20;99.90;;;;;;4167753;28;20636;-88
2023/10/12 11:29:50;;;;;;;4.28;1.75;;;18.90;99.90;;;;;;4151926;28;20169;-87
2023/10/12 11:32:16;;;;;;;12.23;2.17;;;18.90;99.90;;;;;;4196910;28;20266;-88
2023/10/12 11:34:23;;;;;;;5.22;1.63;;;18.90;99.90;;;;;;4153498;28;20181;-90
2023/10/12 11:36:25;;;;;;;4.82;1.80;;;18.90;99.90;;;;;;4167188;28;20264;-94
2023/10/12 11:38:31;;;;;;;3.60;1.75;;;18.90;99.90;;;;;;4166479;28;20522;-89
2023/10/12 11:40:31;;;;;;;3.38;1.52;;;18.60;99.90;;;;;;4149877;28;20172;-90
2023/10/12 11:42:32;;;;;;;4.93;2.38;;;18.60;99.90;;;;;;4198990;28;20298;-91
2023/10/12 11:44:35;;;;;;;3.60;2.20;;;18.70;99.90;;;;;;4149787;28;20657;-90
2023/10/12 11:46:43;;;;;;;5.88;2.22;;;18.60;99.90;;;;;;4182495;28;20203;-92
2023/10/12 11:48:44;;;;;;;4.65;2.17;;;18.40;99.90;;;;;;4150249;28;20206;-92
2023/10/12 11:50:48;;;;;;;3.92;1.67;;;18.30;99.90;;;;;;4198673;28;20178;-90
2023/10/12 11:52:50;;;;;;;3.58;1.58;;;18.20;99.90;;;;;;4149240;28;20180;-91
2023/10/12 11:54:51;;;;;;;6.57;1.98;;;18.20;99.90;;;;;;4166273;28;20175;-91
2023/10/12 11:56:51;;;;;;;5.25;2.30;;;18.20;99.90;;;;;;4182193;28;20183;-91
2023/10/12 11:58:55;;;;;;;6.50;1.80;;;18.10;99.90;;;;;;4165417;28;20183;-91
2023/10/12 12:01:00;;;;;;;8.05;1.85;;;18.30;99.90;;;;;;4182086;28;20198;-91
2023/10/12 12:03:02;;;;;;;7.32;2.00;;;18.20;99.90;;;;;;4181245;28;20301;-91
2023/10/12 12:05:04;;;;;;;8.55;2.53;;;18.00;99.90;;;;;;4148821;28;20538;-94
2023/10/12 12:07:13;;;;;;;3.03;1.48;;;18.00;99.90;;;;;;4164956;28;20191;-90
2023/10/12 12:09:17;;;;;;;3.90;1.77;;;18.00;99.90;;;;;;4182128;28;20186;-91
2023/10/12 12:11:19;;;;;;;8.45;2.47;;;18.00;99.90;;;;;;4148525;28;20542;-93
2023/10/12 12:13:21;;;;;;;8.65;1.80;;;18.00;99.90;;;;;;4148122;28;20168;-91
2023/10/12 12:15:24;;;;;;;15.88;3.35;;;18.00;99.90;;;;;;4148703;28;20537;-92
2023/10/12 12:17:26;;;;;;;4.68;2.08;;;17.80;99.90;;;;;;4180918;28;20195;-91
2023/10/12 12:19:27;;;;;;;8.07;2.80;;;17.90;99.90;;;;;;4164820;28;20214;-91
2023/10/12 12:21:33;;;;;;;8.32;1.70;;;18.00;99.90;;;;;;4197785;28;20609;-89
2023/10/12 12:23:35;;;;;;;5.57;2.03;;;18.00;99.90;;;;;;4181290;28;20745;-93
2023/10/12 12:25:39;;;;;;;4.95;2.08;;;17.90;99.90;;;;;;4148722;28;20189;-91
2023/10/12 12:27:41;;;;;;;6.15;2.75;;;18.00;99.90;;;;;;4181009;28;20191;-91
2023/10/12 12:29:45;;;;;;;4.63;2.55;;;17.90;99.90;;;;;;4164719;28;20168;-90
2023/10/12 12:31:46;;;;;;;6.00;2.25;;;17.80;99.90;;;;;;4180938;28;20168;-91